Time;durP1;ratioP1;P1;durP2;ratioP2;P2;SDS_P1;SDS_P2;PMS_P1;PMS_P2;Temp;Humidity;BMP_temperature;BMP_pressure;BME280_temperature;BME280_humidity;BME280_pressure;Samples;Min_cycle;Max_cycle;Signal;HPM_P1;HPM_P2
2022/09/07 06:20:08;;;;;;;7.43;3.53;;;17.70;99.90;;;;;;5134273;27;20607;-83
2022/09/07 06:22:37;;;;;;;8.00;3.53;;;17.80;99.90;;;;;;5090315;28;20294;-83
2022/09/07 06:25:06;;;;;;;5.87;3.13;;;17.90;99.90;;;;;;5090760;28;20202;-85
2022/09/07 06:27:34;;;;;;;7.43;3.20;;;17.90;99.90;;;;;;5089945;28;20297;-85
2022/09/07 06:30:02;;;;;;;6.70;3.00;;;18.00;99.90;;;;;;5085857;28;20299;-85
2022/09/07 06:32:30;;;;;;;6.73;2.70;;;18.00;99.90;;;;;;5089686;28;20249;-86
2022/09/07 06:35:16;;;;;;;9.43;2.60;;;18.00;99.90;;;;;;5101953;28;20195;-80
2022/09/07 06:37:44;;;;;;;7.87;2.73;;;17.90;99.90;;;;;;5092638;28;20241;-81
2022/09/07 06:40:12;;;;;;;5.43;2.73;;;17.80;99.90;;;;;;5090612;28;20333;-80
2022/09/07 06:42:41;;;;;;;10.43;3.00;;;17.80;99.90;;;;;;5088608;28;20668;-81
2022/09/07 06:45:10;;;;;;;5.67;2.40;;;17.70;99.90;;;;;;5089826;28;20249;-81
2022/09/07 06:47:39;;;;;;;5.87;2.57;;;17.60;99.90;;;;;;5092253;28;20210;-83
2022/09/07 06:50:09;;;;;;;7.47;2.50;;;17.60;99.90;;;;;;5084997;28;20618;-85
2022/09/07 06:52:38;;;;;;;7.70;2.63;;;17.60;99.90;;;;;;5089456;28;20691;-84
2022/09/07 06:55:27;;;;;;;6.63;2.30;;;17.60;99.90;;;;;;5089225;28;20207;-84
2022/09/07 06:57:55;;;;;;;7.73;2.63;;;17.70;99.90;;;;;;5088847;28;20272;-84
2022/09/07 07:00:24;;;;;;;11.17;2.80;;;17.80;99.90;;;;;;5088704;28;20323;-85
2022/09/07 07:02:52;;;;;;;6.00;2.83;;;17.90;99.90;;;;;;5088916;28;20207;-83
2022/09/07 07:05:20;;;;;;;5.47;2.20;;;17.90;99.90;;;;;;5088954;28;20211;-83
2022/09/07 07:07:50;;;;;;;5.87;2.50;;;17.90;99.90;;;;;;5088634;28;20203;-83
2022/09/07 07:10:18;;;;;;;11.17;2.67;;;17.90;99.90;;;;;;5088746;28;20230;-83
2022/09/07 07:12:55;;;;;;;7.03;2.50;;;17.90;99.90;;;;;;5089061;28;20222;-83
2022/09/07 07:15:27;;;;;;;4.43;2.47;;;17.90;99.90;;;;;;5089070;28;20802;-84
2022/09/07 07:17:55;;;;;;;7.03;3.10;;;18.00;99.90;;;;;;5088508;28;20195;-84
2022/09/07 07:20:36;;;;;;;5.60;2.50;;;18.00;99.90;;;;;;5091922;28;20584;-85
2022/09/07 07:23:06;;;;;;;6.57;2.57;;;18.20;99.90;;;;;;5090482;28;20246;-85
2022/09/07 07:25:35;;;;;;;7.03;2.50;;;18.20;99.90;;;;;;5089466;28;20270;-86
2022/09/07 07:28:04;;;;;;;5.60;2.73;;;18.50;99.90;;;;;;5090570;28;20270;-87
2022/09/07 07:30:55;;;;;;;6.87;2.50;;;18.80;99.90;;;;;;5078695;28;20211;-87
2022/09/07 07:33:24;;;;;;;8.67;2.40;;;19.60;99.90;;;;;;5077703;28;20243;-86
2022/09/07 07:35:53;;;;;;;6.40;2.07;;;20.60;99.90;;;;;;5077643;28;20223;-86
2022/09/07 07:38:22;;;;;;;5.43;2.20;;;21.10;99.90;;;;;;5076032;28;20207;-86
2022/09/07 07:41:23;;;;;;;4.60;2.00;;;21.80;99.90;;;;;;5075369;28;20294;-85
2022/09/07 07:44:12;;;;;;;7.07;2.10;;;22.70;99.90;;;;;;5080061;28;20727;-85
2022/09/07 07:46:40;;;;;;;6.03;2.10;;;23.70;99.90;;;;;;5081315;28;20207;-86
2022/09/07 07:49:08;;;;;;;6.13;1.90;;;24.20;99.90;;;;;;5082477;28;20645;-85
2022/09/07 07:51:36;;;;;;;6.73;2.03;;;25.40;99.90;;;;;;5088413;28;20214;-86
2022/09/07 07:54:26;;;;;;;4.03;2.08;;;26.00;99.90;;;;;;5087021;28;20246;-88
2022/09/07 07:56:54;;;;;;;6.35;2.20;;;26.70;99.90;;;;;;5081448;28;20212;-88
2022/09/07 07:59:22;;;;;;;2.90;1.95;;;27.40;99.90;;;;;;5083601;28;20214;-87
2022/09/07 08:01:50;;;;;;;7.13;1.75;;;27.40;99.90;;;;;;5081838;28;20207;-86
2022/09/07 08:04:18;;;;;;;5.80;1.90;;;27.80;99.90;;;;;;5080695;28;20211;-87
2022/09/07 08:06:47;;;;;;;6.53;2.20;;;28.20;99.90;;;;;;5081181;28;20207;-84
2022/09/07 08:09:15;;;;;;;7.60;2.03;;;27.90;99.90;;;;;;5078810;28;20722;-86
2022/09/07 08:11:46;;;;;;;6.95;2.15;;;27.90;99.90;;;;;;5079549;28;20215;-86
2022/09/07 08:14:15;;;;;;;5.30;1.65;;;27.90;99.90;;;;;;5073737;28;20215;-86
2022/09/07 08:16:43;;;;;;;6.05;2.05;;;27.90;99.90;;;;;;5074641;28;20199;-85
2022/09/07 08:19:11;;;;;;;6.05;2.08;;;28.20;99.90;;;;;;5072811;28;20222;-87
2022/09/07 08:21:40;;;;;;;4.78;1.80;;;28.90;99.90;;;;;;5075344;28;20212;-88
2022/09/07 08:24:08;;;;;;;5.22;1.90;;;28.90;99.90;;;;;;5074931;28;20234;-84
2022/09/07 08:26:36;;;;;;;4.18;1.60;;;28.20;99.90;;;;;;5075668;28;20223;-86
2022/09/07 08:29:06;;;;;;;6.68;1.73;;;28.20;99.90;;;;;;5074326;28;20227;-84
2022/09/07 08:31:34;;;;;;;4.63;2.00;;;28.20;99.90;;;;;;5077380;28;20199;-83
2022/09/07 08:34:02;;;;;;;4.82;1.50;;;28.00;99.90;;;;;;5075129;28;20218;-86
2022/09/07 08:36:30;;;;;;;5.05;2.00;;;28.00;99.90;;;;;;5075364;28;20211;-85
2022/09/07 08:38:58;;;;;;;7.05;2.25;;;28.30;99.90;;;;;;5075054;28;20306;-84
2022/09/07 08:41:48;;;;;;;6.07;2.03;;;28.30;99.90;;;;;;5079801;28;20208;-85
2022/09/07 08:44:22;;;;;;;4.80;2.00;;;28.80;99.90;;;;;;5062779;28;20216;-85
2022/09/07 08:46:54;;;;;;;6.07;2.63;;;29.20;99.90;;;;;;5053881;28;20209;-85
2022/09/07 08:49:30;;;;;;;5.03;1.92;;;28.70;99.90;;;;;;5053925;28;20690;-84
2022/09/07 08:52:02;;;;;;;7.93;2.70;;;28.80;99.90;;;;;;5055870;28;20196;-86
2022/09/07 08:54:31;;;;;;;7.28;3.10;;;28.70;99.90;;;;;;5053658;28;20188;-84
2022/09/07 08:57:03;;;;;;;6.55;2.60;;;28.50;99.90;;;;;;5053832;28;20216;-84
2022/09/07 09:00:01;;;;;;;4.57;2.00;;;28.60;99.90;;;;;;5054533;28;20204;-83
2022/09/07 09:02:29;;;;;;;4.65;2.08;;;28.90;99.90;;;;;;5054632;28;20200;-87
2022/09/07 09:05:20;;;;;;;7.88;2.33;;;29.40;99.90;;;;;;5055858;28;20258;-85
2022/09/07 09:08:01;;;;;;;6.18;2.13;;;29.30;99.90;;;;;;5053745;28;20253;-84
2022/09/07 09:10:36;;;;;;;8.65;2.40;;;29.10;99.90;;;;;;5054428;28;20247;-86
2022/09/07 09:13:14;;;;;;;4.53;2.10;;;30.00;99.90;;;;;;5054939;28;20184;-84
2022/09/07 09:15:58;;;;;;;4.03;2.10;;;30.20;99.90;;;;;;5056488;28;20198;-84
2022/09/07 09:18:39;;;;;;;6.85;2.25;;;30.60;99.90;;;;;;5056953;28;20223;-83
2022/09/07 09:21:13;;;;;;;6.57;2.00;;;31.10;98.80;;;;;;5054608;28;20230;-86
2022/09/07 09:23:43;;;;;;;5.55;2.20;;;31.30;98.40;;;;;;5054301;28;20195;-88
2022/09/07 09:26:16;;;;;;;7.57;2.30;;;31.40;97.90;;;;;;5054426;28;20655;-84
2022/09/07 09:28:44;;;;;;;6.55;2.28;;;31.20;98.50;;;;;;5053459;28;20188;-88
2022/09/07 09:31:18;;;;;;;6.38;2.25;;;31.60;97.90;;;;;;5053880;28;20232;-86
2022/09/07 09:34:08;;;;;;;7.15;2.15;;;31.90;96.20;;;;;;5053466;28;20228;-86
2022/09/07 09:36:41;;;;;;;4.93;2.28;;;31.50;96.70;;;;;;5054080;28;20218;-85
2022/09/07 09:39:29;;;;;;;5.65;2.33;;;31.80;97.10;;;;;;5070181;28;20196;-84
2022/09/07 09:42:01;;;;;;;5.63;1.98;;;31.80;96.10;;;;;;5073584;28;20627;-84
2022/09/07 09:44:36;;;;;;;6.35;2.08;;;32.00;95.20;;;;;;5073222;28;20242;-84
2022/09/07 09:47:06;;;;;;;6.07;2.38;;;32.40;94.20;;;;;;5073828;28;20274;-85
2022/09/07 09:49:55;;;;;;;5.40;2.10;;;32.20;94.70;;;;;;5073262;28;20284;-83
2022/09/07 09:52:24;;;;;;;7.32;2.28;;;32.60;94.30;;;;;;5073602;28;20221;-84
2022/09/07 09:54:58;;;;;;;6.00;2.13;;;32.40;94.90;;;;;;5073555;28;20195;-85
2022/09/07 09:57:50;;;;;;;5.68;2.00;;;32.30;94.80;;;;;;5073335;28;20575;-86
2022/09/07 10:00:38;;;;;;;9.55;2.30;;;32.80;93.30;;;;;;5073839;28;20252;-85
2022/09/07 10:03:30;;;;;;;6.57;2.15;;;32.50;92.70;;;;;;5073720;28;20203;-86
2022/09/07 10:06:19;;;;;;;10.23;2.20;;;32.80;93.20;;;;;;5070053;28;20207;-88
2022/09/07 10:08:56;;;;;;;8.23;1.98;;;32.60;92.10;;;;;;5075572;28;20203;-85
2022/09/07 10:11:41;;;;;;;6.38;2.20;;;32.40;93.20;;;;;;5076591;28;20680;-85
2022/09/07 10:14:33;;;;;;;6.35;1.83;;;32.20;92.60;;;;;;5077439;28;20268;-87
2022/09/07 10:17:10;;;;;;;7.50;2.05;;;32.10;94.00;;;;;;5078925;28;20188;-87
2022/09/07 10:19:41;;;;;;;7.47;2.20;;;32.00;93.10;;;;;;5076391;28;20245;-84
2022/09/07 10:22:24;;;;;;;7.72;2.30;;;32.30;93.50;;;;;;5078234;28;20195;-83
2022/09/07 10:24:52;;;;;;;7.53;1.95;;;31.80;92.60;;;;;;5077295;28;20191;-87
2022/09/07 10:27:33;;;;;;;5.78;1.95;;;31.90;93.70;;;;;;5066422;28;20208;-84
2022/09/07 10:30:02;;;;;;;5.57;2.03;;;32.00;93.10;;;;;;5055491;28;20188;-86
2022/09/07 10:32:54;;;;;;;6.18;2.00;;;32.10;93.40;;;;;;5055041;28;20199;-88
2022/09/07 10:35:28;;;;;;;8.20;2.17;;;32.20;92.40;;;;;;5061300;28;20227;-85
2022/09/07 10:38:06;;;;;;;12.02;2.50;;;32.10;92.90;;;;;;5073485;28;20198;-85
2022/09/07 10:40:35;;;;;;;5.38;2.08;;;32.50;93.50;;;;;;5076838;28;20192;-84
2022/09/07 10:43:18;;;;;;;5.40;2.15;;;32.70;92.10;;;;;;5075620;28;20657;-84
2022/09/07 10:46:12;;;;;;;7.85;2.00;;;31.70;92.40;;;;;;5074259;28;20625;-86
2022/09/07 10:48:53;;;;;;;9.05;2.20;;;31.50;93.90;;;;;;5073896;28;20298;-86
2022/09/07 10:51:35;;;;;;;8.55;2.85;;;31.20;93.70;;;;;;5075196;28;20207;-85
2022/09/07 10:54:12;;;;;;;5.22;2.28;;;31.10;94.40;;;;;;5075764;28;20198;-84
2022/09/07 10:57:07;;;;;;;7.25;3.40;;;30.50;94.40;;;;;;5075609;28;20188;-84
2022/09/07 10:59:45;;;;;;;4.80;1.70;;;30.70;95.90;;;;;;5077906;28;20199;-84
2022/09/07 11:02:47;;;;;;;6.05;1.95;;;31.00;95.20;;;;;;5076691;28;20211;-84
2022/09/07 11:05:46;;;;;;;5.05;2.00;;;31.20;94.00;;;;;;5078843;28;20661;-84
2022/09/07 11:08:32;;;;;;;6.05;2.03;;;31.30;94.00;;;;;;5085584;28;20203;-84
2022/09/07 11:11:26;;;;;;;6.28;1.90;;;30.90;94.20;;;;;;5094289;28;20570;-84
2022/09/07 11:14:18;;;;;;;6.03;2.00;;;30.70;95.80;;;;;;5082195;28;20208;-83
2022/09/07 11:16:51;;;;;;;8.55;1.90;;;30.40;95.80;;;;;;5078174;28;20200;-85
2022/09/07 11:19:24;;;;;;;8.15;1.90;;;30.40;95.30;;;;;;5076280;28;20243;-87
2022/09/07 11:22:18;;;;;;;5.32;2.00;;;30.00;95.80;;;;;;5076198;28;20282;-86
2022/09/07 11:24:53;;;;;;;6.40;1.90;;;30.20;96.40;;;;;;5076660;28;20195;-86
2022/09/07 11:27:45;;;;;;;6.13;1.98;;;30.00;95.40;;;;;;5075372;28;20261;-85
2022/09/07 11:30:20;;;;;;;6.73;1.77;;;29.60;96.70;;;;;;5076361;28;20692;-82
2022/09/07 11:32:59;;;;;;;6.93;1.90;;;29.40;96.30;;;;;;5075104;28;20308;-85
2022/09/07 11:35:36;;;;;;;7.10;1.93;;;29.70;96.80;;;;;;5075579;28;20665;-85
2022/09/07 11:38:14;;;;;;;7.93;1.80;;;30.20;97.30;;;;;;5075154;28;20184;-86
2022/09/07 11:40:52;;;;;;;8.23;2.03;;;30.20;96.60;;;;;;5077131;28;20661;-86
2022/09/07 11:43:23;;;;;;;5.10;1.80;;;30.20;96.60;;;;;;5074719;28;20199;-84
2022/09/07 11:45:54;;;;;;;6.90;1.80;;;30.00;96.80;;;;;;5076328;28;20768;-85
2022/09/07 11:48:27;;;;;;;5.13;1.90;;;30.10;94.80;;;;;;5076054;28;20634;-85
2022/09/07 11:51:03;;;;;;;6.40;1.70;;;29.90;95.70;;;;;;5074605;28;20258;-84
2022/09/07 11:53:34;;;;;;;4.60;1.80;;;29.90;96.20;;;;;;5074032;28;20211;-85
2022/09/07 11:56:17;;;;;;;8.23;1.87;;;29.60;95.80;;;;;;5077216;28;20203;-84
2022/09/07 11:59:01;;;;;;;6.47;3.07;;;29.10;96.80;;;;;;5074303;28;20196;-87
2022/09/07 12:01:40;;;;;;;5.80;1.90;;;28.90;98.80;;;;;;5074503;28;20204;-85
2022/09/07 12:04:33;;;;;;;7.40;1.80;;;28.70;96.70;;;;;;5074895;28;20196;-85
2022/09/07 12:07:42;;;;;;;6.70;1.80;;;29.00;98.00;;;;;;5074612;28;20291;-84
2022/09/07 12:10:45;;;;;;;5.87;1.73;;;29.40;98.20;;;;;;5073988;28;20211;-85
2022/09/07 12:13:45;;;;;;;7.93;2.17;;;29.70;97.50;;;;;;5065960;28;20215;-84
2022/09/07 12:16:21;;;;;;;6.90;1.80;;;29.90;97.30;;;;;;5074579;28;20191;-88
2022/09/07 12:19:11;;;;;;;5.97;1.63;;;29.80;95.70;;;;;;5077443;28;20222;-84
2022/09/07 12:21:44;;;;;;;5.37;1.70;;;29.90;96.80;;;;;;5076431;28;20203;-84
2022/09/07 12:24:42;;;;;;;6.93;1.90;;;29.90;95.80;;;;;;5074676;28;20275;-84
2022/09/07 12:27:26;;;;;;;3.33;1.70;;;29.50;96.40;;;;;;5075309;28;20204;-86
2022/09/07 12:30:28;;;;;;;5.57;1.60;;;29.50;96.40;;;;;;5076893;28;20207;-86
2022/09/07 12:33:04;;;;;;;5.43;1.90;;;29.50;96.20;;;;;;5075808;28;20241;-85
2022/09/07 12:35:39;;;;;;;7.37;1.97;;;29.20;95.20;;;;;;5077283;28;20222;-84
2022/09/07 12:38:41;;;;;;;5.03;1.73;;;29.50;95.70;;;;;;5073925;28;20191;-83
2022/09/07 12:41:23;;;;;;;9.07;2.00;;;29.10;96.40;;;;;;5075701;28;20188;-86
2022/09/07 12:44:07;;;;;;;5.07;1.60;;;29.30;95.20;;;;;;5074207;28;20195;-84
2022/09/07 12:46:45;;;;;;;4.33;1.57;;;29.00;96.20;;;;;;5075697;28;20207;-86
2022/09/07 12:49:43;;;;;;;4.60;1.90;;;29.30;96.80;;;;;;5074868;28;20699;-86
2022/09/07 12:52:46;;;;;;;5.50;1.80;;;29.30;95.60;;;;;;5070123;28;20228;-84
2022/09/07 12:55:29;;;;;;;3.67;1.67;;;29.10;95.20;;;;;;5075246;28;20199;-87
2022/09/07 12:58:14;;;;;;;6.63;1.83;;;29.20;95.30;;;;;;5075431;28;20238;-86
2022/09/07 13:00:58;;;;;;;7.27;1.80;;;29.20;95.60;;;;;;5075356;28;20236;-85
2022/09/07 13:03:53;;;;;;;5.50;1.60;;;29.10;96.60;;;;;;5077467;28;20203;-85
2022/09/07 13:06:31;;;;;;;8.03;1.67;;;29.30;95.80;;;;;;5074384;28;20630;-85
2022/09/07 13:09:34;;;;;;;8.37;1.77;;;29.50;95.20;;;;;;5079093;28;20234;-86
2022/09/07 13:12:18;;;;;;;5.07;1.87;;;29.20;95.80;;;;;;5076853;28;20215;-85
2022/09/07 13:15:07;;;;;;;5.70;1.77;;;29.30;95.50;;;;;;5068589;28;20203;-87
2022/09/07 13:17:56;;;;;;;4.97;1.80;;;29.00;95.00;;;;;;5055732;28;20639;-85
2022/09/07 13:20:30;;;;;;;5.10;1.77;;;29.10;96.20;;;;;;5053309;28;20231;-83
2022/09/07 13:23:24;;;;;;;5.50;1.80;;;28.90;97.70;;;;;;5052942;28;20234;-85
2022/09/07 13:25:56;;;;;;;4.23;1.50;;;29.00;96.60;;;;;;5055526;28;20196;-83
2022/09/07 13:28:41;;;;;;;4.23;1.63;;;29.00;96.00;;;;;;5054308;28;20200;-84
2022/09/07 13:31:23;;;;;;;6.37;1.90;;;28.80;96.30;;;;;;5055661;28;20238;-84
2022/09/07 13:33:52;;;;;;;5.63;1.90;;;28.80;95.40;;;;;;5054056;28;20189;-85
2022/09/07 13:36:38;;;;;;;5.07;1.60;;;28.80;95.50;;;;;;5060739;28;20215;-83
2022/09/07 13:39:11;;;;;;;3.73;1.70;;;28.90;95.70;;;;;;5057436;28;20192;-86
2022/09/07 13:41:47;;;;;;;6.53;1.80;;;28.80;95.70;;;;;;5055466;28;20204;-85
2022/09/07 13:44:20;;;;;;;6.30;1.93;;;28.70;96.10;;;;;;5074184;28;20207;-88
2022/09/07 13:47:20;;;;;;;6.87;1.90;;;28.50;96.50;;;;;;5075011;28;20203;-85
2022/09/07 13:50:18;;;;;;;4.30;1.77;;;28.40;95.80;;;;;;5072294;28;21158;-85
2022/09/07 13:53:01;;;;;;;7.53;1.67;;;28.50;96.60;;;;;;5074211;28;20223;-84
2022/09/07 13:55:38;;;;;;;5.33;1.90;;;28.50;96.70;;;;;;5092381;28;20213;-84
2022/09/07 13:58:14;;;;;;;7.87;1.93;;;28.50;97.30;;;;;;5087244;28;20679;-85
2022/09/07 14:00:52;;;;;;;5.17;1.80;;;28.50;96.90;;;;;;5074367;28;20195;-85
2022/09/07 14:03:22;;;;;;;3.63;1.80;;;28.40;97.10;;;;;;5072590;28;20199;-83
2022/09/07 14:06:13;;;;;;;7.47;1.73;;;28.50;97.10;;;;;;5068677;28;20227;-82
2022/09/07 14:08:46;;;;;;;4.67;1.80;;;28.60;96.60;;;;;;5073037;28;20191;-84
2022/09/07 14:11:18;;;;;;;5.77;1.80;;;28.70;95.70;;;;;;5072893;28;20203;-83
2022/09/07 14:14:06;;;;;;;3.97;2.00;;;28.60;95.20;;;;;;5071890;28;20227;-82
2022/09/07 14:16:34;;;;;;;6.00;1.73;;;28.50;95.70;;;;;;5072414;28;20215;-81
2022/09/07 14:19:16;;;;;;;6.67;1.70;;;28.30;95.70;;;;;;5071612;28;20219;-82
2022/09/07 14:21:45;;;;;;;6.17;1.93;;;28.50;96.10;;;;;;5074444;28;20195;-84
2022/09/07 14:24:21;;;;;;;5.07;1.70;;;28.60;96.60;;;;;;5072402;28;20211;-83
2022/09/07 14:26:49;;;;;;;4.57;1.80;;;28.90;96.30;;;;;;5071945;28;20187;-81
2022/09/07 14:29:24;;;;;;;4.00;1.77;;;28.60;95.40;;;;;;5058044;28;20212;-83
2022/09/07 14:31:53;;;;;;;7.53;1.97;;;28.90;96.40;;;;;;5051628;28;20214;-80
2022/09/07 14:34:24;;;;;;;6.00;2.10;;;28.80;95.40;;;;;;5052251;28;20215;-83
2022/09/07 14:36:53;;;;;;;4.30;1.93;;;28.90;95.60;;;;;;5051949;28;20214;-82
2022/09/07 14:39:23;;;;;;;6.13;1.80;;;29.00;95.60;;;;;;5051783;28;20208;-81
2022/09/07 14:41:51;;;;;;;5.67;1.60;;;29.00;95.90;;;;;;5056481;28;20237;-84
2022/09/07 14:44:33;;;;;;;7.20;1.90;;;28.80;96.50;;;;;;5057442;28;20203;-83
2022/09/07 14:47:07;;;;;;;6.13;1.70;;;28.60;94.80;;;;;;5055919;28;20642;-85
2022/09/07 14:49:35;;;;;;;7.97;2.30;;;28.50;95.00;;;;;;5056420;28;20565;-84
2022/09/07 14:52:03;;;;;;;5.07;1.70;;;28.40;94.70;;;;;;5056169;28;20212;-83
2022/09/07 14:54:34;;;;;;;6.87;2.07;;;28.20;94.70;;;;;;5056140;28;20577;-84
2022/09/07 14:57:07;;;;;;;4.23;1.73;;;28.20;96.80;;;;;;5060273;28;20774;-83
2022/09/07 14:59:39;;;;;;;8.03;2.00;;;28.00;96.50;;;;;;5075930;28;20188;-82
2022/09/07 15:02:25;;;;;;;5.47;1.90;;;28.10;96.60;;;;;;5076055;28;20198;-83
2022/09/07 15:05:15;;;;;;;5.87;1.90;;;28.00;96.40;;;;;;5076413;28;20210;-84
2022/09/07 15:07:50;;;;;;;6.40;1.77;;;28.10;95.90;;;;;;5076428;28;20230;-83
2022/09/07 15:10:35;;;;;;;5.77;1.90;;;27.80;94.70;;;;;;5076770;28;20202;-84
2022/09/07 15:13:06;;;;;;;5.07;1.63;;;27.60;95.50;;;;;;5076253;28;20576;-81
2022/09/07 15:15:38;;;;;;;6.07;1.87;;;27.60;95.70;;;;;;5076499;28;20222;-83
2022/09/07 15:18:44;;;;;;;4.10;2.00;;;27.70;97.20;;;;;;5074993;28;20223;-83
2022/09/07 15:21:12;;;;;;;5.23;1.80;;;27.60;97.30;;;;;;5074790;28;20240;-80
2022/09/07 15:23:40;;;;;;;7.03;1.73;;;27.40;97.30;;;;;;5074877;28;20208;-80
2022/09/07 15:26:10;;;;;;;4.70;1.57;;;27.30;96.70;;;;;;5074709;28;20617;-82
2022/09/07 15:28:59;;;;;;;4.90;2.00;;;27.10;98.80;;;;;;5074793;28;20631;-81
2022/09/07 15:31:44;;;;;;;5.33;1.90;;;27.10;97.90;;;;;;5074847;28;20634;-83
2022/09/07 15:34:28;;;;;;;4.67;1.80;;;27.10;97.50;;;;;;5074678;28;20215;-83
2022/09/07 15:36:58;;;;;;;6.23;1.73;;;27.10;96.80;;;;;;5074314;28;20208;-81
2022/09/07 15:39:29;;;;;;;4.53;1.97;;;27.20;98.20;;;;;;5074929;28;20203;-83
2022/09/07 15:41:58;;;;;;;5.27;1.97;;;27.20;98.00;;;;;;5074406;28;20214;-82
2022/09/07 15:44:46;;;;;;;6.33;2.13;;;26.90;98.70;;;;;;5074776;28;20207;-82
2022/09/07 15:47:15;;;;;;;4.70;1.93;;;26.90;98.30;;;;;;5074381;28;20215;-82
2022/09/07 15:50:04;;;;;;;7.77;2.00;;;27.00;99.10;;;;;;5070169;28;20222;-82
2022/09/07 15:52:32;;;;;;;6.13;2.10;;;27.00;99.00;;;;;;5074460;28;20668;-82
2022/09/07 15:55:00;;;;;;;4.33;1.97;;;26.90;99.20;;;;;;5074872;28;20215;-83
2022/09/07 15:57:30;;;;;;;6.77;2.00;;;26.80;98.60;;;;;;5056224;28;20219;-83
2022/09/07 16:00:17;;;;;;;7.17;1.80;;;26.70;98.50;;;;;;5056049;28;20203;-84
2022/09/07 16:02:47;;;;;;;8.63;1.97;;;26.60;98.80;;;;;;5054871;28;20211;-81
2022/09/07 16:05:35;;;;;;;5.80;2.20;;;26.50;98.70;;;;;;5054465;28;20602;-82
2022/09/07 16:08:03;;;;;;;8.10;2.07;;;26.40;99.30;;;;;;5054110;28;20729;-82
2022/09/07 16:10:52;;;;;;;5.57;2.10;;;26.30;99.90;;;;;;5053767;28;20747;-81
2022/09/07 16:13:23;;;;;;;7.87;2.10;;;26.30;99.90;;;;;;5054313;28;20308;-82
2022/09/07 16:15:51;;;;;;;4.87;2.00;;;26.20;99.90;;;;;;5055442;28;20280;-82
2022/09/07 16:18:21;;;;;;;6.83;2.00;;;26.10;99.90;;;;;;5053799;28;20220;-81
2022/09/07 16:20:49;;;;;;;5.77;2.03;;;26.00;99.90;;;;;;5053938;28;20216;-81
2022/09/07 16:23:20;;;;;;;4.80;2.00;;;25.90;99.90;;;;;;5064331;28;20188;-82
2022/09/07 16:25:56;;;;;;;6.07;1.90;;;25.90;99.90;;;;;;5054234;28;20232;-82
2022/09/07 16:28:25;;;;;;;5.67;1.90;;;25.80;99.90;;;;;;5054275;28;20298;-82
2022/09/07 16:30:54;;;;;;;3.67;1.90;;;25.70;99.90;;;;;;5053322;28;20578;-81
2022/09/07 16:33:25;;;;;;;5.20;1.90;;;25.60;99.90;;;;;;5053847;28;20227;-80
2022/09/07 16:36:06;;;;;;;6.10;2.40;;;25.50;99.90;;;;;;5053643;28;20258;-82
2022/09/07 16:38:34;;;;;;;5.80;2.10;;;25.50;99.90;;;;;;5053919;28;20197;-82
2022/09/07 16:41:21;;;;;;;6.17;2.10;;;25.30;99.90;;;;;;5053593;28;20200;-82
2022/09/07 16:43:50;;;;;;;8.43;2.27;;;25.30;99.90;;;;;;5063035;28;20195;-82
2022/09/07 16:46:20;;;;;;;7.33;2.37;;;25.20;99.90;;;;;;5073505;28;20212;-83
2022/09/07 16:48:51;;;;;;;4.30;2.07;;;25.10;99.90;;;;;;5073076;28;20196;-81
2022/09/07 16:51:21;;;;;;;8.20;2.20;;;25.00;99.90;;;;;;5073319;28;20216;-81
2022/09/07 16:53:51;;;;;;;7.03;2.50;;;25.00;99.90;;;;;;5073553;28;20245;-80
2022/09/07 16:56:20;;;;;;;6.47;2.10;;;24.90;99.90;;;;;;5053870;28;20208;-83
2022/09/07 16:58:50;;;;;;;6.20;2.30;;;24.90;99.90;;;;;;5053227;28;20604;-82
2022/09/07 17:01:21;;;;;;;5.63;2.40;;;24.80;99.90;;;;;;5054046;28;20249;-82
2022/09/07 17:03:51;;;;;;;10.47;2.13;;;24.70;99.90;;;;;;5052628;28;20208;-81
2022/09/07 17:06:21;;;;;;;6.70;2.30;;;24.60;99.90;;;;;;5053744;28;20205;-82
2022/09/07 17:08:52;;;;;;;8.23;2.30;;;24.60;99.90;;;;;;5053170;28;20238;-83
2022/09/07 17:11:22;;;;;;;7.83;2.50;;;24.50;99.90;;;;;;5052728;28;20589;-81
2022/09/07 17:13:51;;;;;;;6.50;2.27;;;24.40;99.90;;;;;;5052346;28;20236;-83
2022/09/07 17:16:21;;;;;;;6.40;2.20;;;24.40;99.90;;;;;;5052986;28;20196;-83
2022/09/07 17:18:51;;;;;;;7.07;2.20;;;24.20;99.90;;;;;;5052370;28;20239;-80
2022/09/07 17:21:40;;;;;;;11.20;2.37;;;24.10;99.90;;;;;;5052689;28;20265;-81
2022/09/07 17:24:10;;;;;;;8.13;2.30;;;24.00;99.90;;;;;;5052672;28;20209;-79
2022/09/07 17:26:39;;;;;;;5.80;2.30;;;23.80;99.90;;;;;;5052370;28;20206;-80
2022/09/07 17:29:10;;;;;;;6.97;2.10;;;23.70;99.90;;;;;;5052251;28;20228;-82
2022/09/07 17:31:40;;;;;;;8.90;2.40;;;23.70;99.90;;;;;;5052586;28;20192;-80
2022/09/07 17:34:30;;;;;;;7.73;3.47;;;23.60;99.90;;;;;;5052286;28;20224;-79
2022/09/07 17:36:58;;;;;;;8.40;2.70;;;23.40;99.90;;;;;;5052369;28;20212;-80
2022/09/07 17:39:28;;;;;;;10.80;3.10;;;23.30;99.90;;;;;;5052123;28;20204;-80
2022/09/07 17:41:57;;;;;;;8.97;2.80;;;23.20;99.90;;;;;;5051694;28;20235;-80
2022/09/07 17:44:26;;;;;;;9.67;2.97;;;23.10;99.90;;;;;;5056118;28;20287;-81
2022/09/07 17:47:00;;;;;;;8.67;2.57;;;23.00;99.90;;;;;;5063833;28;20755;-80
2022/09/07 17:49:30;;;;;;;9.20;2.63;;;22.90;99.90;;;;;;5066000;28;20327;-80
2022/09/07 17:51:59;;;;;;;8.93;2.77;;;22.80;99.90;;;;;;5062377;28;20212;-78
2022/09/07 17:54:28;;;;;;;25.13;3.20;;;22.70;99.90;;;;;;5069979;28;20634;-79
2022/09/07 17:56:56;;;;;;;12.83;2.83;;;22.60;99.90;;;;;;5072057;28;20207;-80
2022/09/07 17:59:24;;;;;;;10.73;2.90;;;22.50;99.90;;;;;;5068440;28;20219;-80
2022/09/07 18:02:13;;;;;;;8.60;2.47;;;22.40;99.90;;;;;;5070007;28;20222;-81
2022/09/07 18:04:42;;;;;;;7.73;2.77;;;22.30;99.90;;;;;;5069260;28;20212;-79
2022/09/07 18:07:11;;;;;;;14.33;2.90;;;22.30;99.90;;;;;;5072306;28;20298;-80
2022/09/07 18:09:39;;;;;;;13.27;3.13;;;22.20;99.90;;;;;;5066952;28;20199;-81
2022/09/07 18:12:07;;;;;;;14.60;2.70;;;22.10;99.90;;;;;;5065909;28;20207;-79
2022/09/07 18:14:38;;;;;;;13.23;3.10;;;22.10;99.90;;;;;;5064525;28;20234;-80
2022/09/07 18:17:13;;;;;;;11.27;2.50;;;22.00;99.90;;;;;;5064515;28;20219;-82
2022/09/07 18:19:43;;;;;;;8.80;2.93;;;22.00;99.90;;;;;;5067378;28;20214;-81
2022/09/07 18:22:13;;;;;;;11.27;2.97;;;21.90;99.90;;;;;;5066057;28;20220;-80
2022/09/07 18:24:43;;;;;;;9.57;2.70;;;21.80;99.90;;;;;;5067833;28;20206;-78
2022/09/07 18:27:11;;;;;;;5.90;3.03;;;21.80;99.90;;;;;;5060153;28;20338;-81
2022/09/07 18:29:42;;;;;;;13.47;3.43;;;21.70;99.90;;;;;;5066810;28;20638;-80
2022/09/07 18:32:11;;;;;;;6.57;2.63;;;21.70;99.90;;;;;;5062827;28;20700;-80
2022/09/07 18:34:40;;;;;;;10.37;3.57;;;21.70;99.90;;;;;;5069994;28;20238;-81
2022/09/07 18:37:16;;;;;;;6.73;2.97;;;21.60;99.90;;;;;;5061529;28;20215;-80
2022/09/07 18:39:47;;;;;;;8.50;2.73;;;21.50;99.90;;;;;;5063190;28;20215;-80
2022/09/07 18:42:16;;;;;;;6.00;2.50;;;21.50;99.90;;;;;;5063699;28;20298;-80
2022/09/07 18:44:47;;;;;;;6.97;2.80;;;21.40;99.90;;;;;;5067571;28;20198;-82
2022/09/07 18:47:42;;;;;;;6.87;2.80;;;21.40;99.90;;;;;;5062988;28;20560;-79
2022/09/07 18:50:10;;;;;;;5.43;2.87;;;21.30;99.90;;;;;;5066537;28;20612;-80
2022/09/07 18:52:40;;;;;;;5.90;2.80;;;21.20;99.90;;;;;;5070651;28;20217;-81
2022/09/07 18:55:31;;;;;;;8.93;2.80;;;21.10;99.90;;;;;;5069606;28;20348;-81
2022/09/07 18:58:01;;;;;;;6.77;3.00;;;21.10;99.90;;;;;;5070887;28;20246;-82
2022/09/07 19:00:30;;;;;;;9.70;3.23;;;21.00;99.90;;;;;;5067394;28;20227;-81
2022/09/07 19:02:58;;;;;;;9.23;2.90;;;20.90;99.90;;;;;;5070976;28;20212;-80
2022/09/07 19:05:26;;;;;;;8.63;3.10;;;20.80;99.90;;;;;;5076360;28;20681;-81
2022/09/07 19:08:17;;;;;;;7.80;3.13;;;20.80;99.90;;;;;;5071074;28;20207;-80
2022/09/07 19:10:45;;;;;;;9.57;3.17;;;20.60;99.90;;;;;;5069844;28;20200;-81
2022/09/07 19:13:13;;;;;;;6.67;3.10;;;20.60;99.90;;;;;;5067910;28;20230;-80
2022/09/07 19:15:41;;;;;;;9.00;3.10;;;20.50;99.90;;;;;;5066667;28;20251;-80
2022/09/07 19:18:10;;;;;;;9.40;3.73;;;20.40;99.90;;;;;;5068577;28;20216;-79
2022/09/07 19:20:38;;;;;;;9.67;3.50;;;20.30;99.90;;;;;;5070530;28;20657;-80
2022/09/07 19:23:07;;;;;;;7.93;3.60;;;20.30;99.90;;;;;;5068834;28;20231;-80
2022/09/07 19:25:41;;;;;;;10.20;4.20;;;20.20;99.90;;;;;;5062922;28;20225;-79
2022/09/07 19:28:09;;;;;;;9.47;3.97;;;20.20;99.90;;;;;;5075999;28;20212;-80
2022/09/07 19:30:37;;;;;;;9.83;4.33;;;20.10;99.90;;;;;;5071645;28;20219;-80
2022/09/07 19:33:08;;;;;;;7.20;4.13;;;20.10;99.90;;;;;;5068286;28;20215;-78
2022/09/07 19:35:36;;;;;;;10.60;4.10;;;20.00;99.90;;;;;;5065248;28;20266;-79
2022/09/07 19:38:08;;;;;;;10.73;5.20;;;20.00;99.90;;;;;;5078316;28;20215;-79
2022/09/07 19:40:36;;;;;;;7.57;4.27;;;20.00;99.90;;;;;;5072221;28;20307;-80
2022/09/07 19:43:06;;;;;;;9.30;4.37;;;19.90;99.90;;;;;;5074795;28;20207;-81
2022/09/07 19:45:38;;;;;;;8.27;3.70;;;19.90;99.90;;;;;;5073748;28;20196;-79
2022/09/07 19:48:06;;;;;;;9.20;4.00;;;19.90;99.90;;;;;;5079975;28;20210;-80
2022/09/07 19:50:34;;;;;;;10.20;4.27;;;19.90;99.90;;;;;;5073532;28;20239;-79